createdAt,value
2023-02-11T00:01:22.187Z,18.33
2023-02-11T00:03:50.039Z,16.80
2023-02-11T00:06:18.094Z,20.95
2023-02-11T00:08:46.099Z,21.67
2023-02-11T00:11:18.981Z,19.15
2023-02-11T00:13:47.094Z,21.17
2023-02-11T00:16:17.441Z,22.65
2023-02-11T00:18:45.183Z,18.17
2023-02-11T00:21:15.611Z,20.65
2023-02-11T00:23:44.249Z,19.85
2023-02-11T00:26:15.086Z,22.88
2023-02-11T00:28:43.933Z,19.58
2023-02-11T00:31:13.090Z,21.88
2023-02-11T00:33:41.295Z,20.42
2023-02-11T00:36:13.245Z,18.60
2023-02-11T00:38:46.526Z,18.92
2023-02-11T00:41:15.302Z,22.73
2023-02-11T00:43:43.252Z,18.35
2023-02-11T00:46:12.094Z,16.13
2023-02-11T00:48:40.369Z,18.98
2023-02-11T00:51:08.905Z,18.23
2023-02-11T00:53:37.244Z,19.85
2023-02-11T00:56:06.210Z,20.25
2023-02-11T00:58:35.088Z,15.70
2023-02-11T01:01:02.875Z,18.50
2023-02-11T01:03:30.702Z,15.90
2023-02-11T01:05:58.818Z,17.60
2023-02-11T01:08:26.877Z,15.45
2023-02-11T01:10:56.305Z,17.63
2023-02-11T01:13:24.451Z,17.10
2023-02-11T01:15:56.245Z,17.52
2023-02-11T01:18:25.397Z,16.75
2023-02-11T01:20:53.744Z,17.02
2023-02-11T01:23:21.811Z,19.40
2023-02-11T01:25:50.009Z,19.80
2023-02-11T01:28:20.057Z,21.88
2023-02-11T01:30:47.860Z,18.02
2023-02-11T01:33:15.918Z,22.60
2023-02-11T01:35:44.641Z,23.58
2023-02-11T01:38:22.781Z,17.95
2023-02-11T01:40:53.293Z,22.40
2023-02-11T01:43:22.106Z,24.30
2023-02-11T01:45:58.126Z,25.88
2023-02-11T01:48:30.326Z,22.25
2023-02-11T01:51:27.899Z,24.38
2023-02-11T01:54:16.955Z,25.05
2023-02-11T01:57:08.374Z,25.60
2023-02-11T01:59:54.489Z,26.52
2023-02-11T02:02:31.255Z,24.25
2023-02-11T02:05:20.138Z,25.08
2023-02-11T02:08:25.168Z,21.05
2023-02-11T02:10:56.539Z,24.88
2023-02-11T02:13:24.741Z,22.95
2023-02-11T02:15:56.448Z,22.17
2023-02-11T02:18:48.985Z,27.40
2023-02-11T02:21:56.751Z,25.23
2023-02-11T02:24:52.170Z,23.88
2023-02-11T02:27:25.183Z,23.35
2023-02-11T02:30:27.927Z,24.92
2023-02-11T02:32:58.810Z,22.33
2023-02-11T02:35:42.736Z,23.77
2023-02-11T02:38:16.640Z,25.55
2023-02-11T02:40:56.250Z,22.98
2023-02-11T02:43:26.171Z,23.95
2023-02-11T02:45:54.359Z,23.85
2023-02-11T02:48:35.757Z,22.40
2023-02-11T02:51:42.884Z,24.35
2023-02-11T02:54:47.630Z,21.50
2023-02-11T02:57:23.905Z,21.10
2023-02-11T02:59:51.296Z,25.33
2023-02-11T03:02:36.414Z,25.20
2023-02-11T03:05:15.816Z,24.20
2023-02-11T03:07:56.850Z,20.48
2023-02-11T03:12:56.864Z,21.52
2023-02-11T03:15:28.196Z,26.88
2023-02-11T03:18:00.190Z,23.83
2023-02-11T03:20:29.033Z,25.77
2023-02-11T03:23:02.751Z,24.33
2023-02-11T03:25:35.316Z,24.17
2023-02-11T03:28:15.771Z,20.52
2023-02-11T03:30:53.542Z,22.75
2023-02-11T03:33:36.330Z,26.67
2023-02-11T03:36:10.582Z,25.63
2023-02-11T03:38:43.798Z,26.38
2023-02-11T03:41:14.255Z,22.92
2023-02-11T03:43:51.411Z,25.23
2023-02-11T03:46:23.420Z,23.85
2023-02-11T03:48:58.764Z,24.90
2023-02-11T03:51:29.184Z,26.98
2023-02-11T03:54:00.020Z,24.75
2023-02-11T03:58:57.680Z,26.17
2023-02-11T04:01:25.305Z,29.95
2023-02-11T04:03:52.886Z,27.45
2023-02-11T04:06:20.408Z,24.25
2023-02-11T04:08:47.972Z,25.10
2023-02-11T04:11:15.559Z,27.55
2023-02-11T04:13:43.196Z,25.02
2023-02-11T04:16:10.994Z,25.90
2023-02-11T04:18:38.680Z,25.25
2023-02-11T04:21:06.399Z,30.50
2023-02-11T04:23:34.276Z,26.13
2023-02-11T04:26:02.131Z,24.15
2023-02-11T04:28:29.751Z,24.63
2023-02-11T04:30:58.339Z,27.33
2023-02-11T04:33:26.040Z,24.33
2023-02-11T04:35:53.996Z,22.60
2023-02-11T04:38:24.146Z,26.13
2023-02-11T04:40:51.536Z,22.87
2023-02-11T04:43:18.998Z,22.85
2023-02-11T04:45:46.502Z,21.13
2023-02-11T04:48:13.919Z,27.33
2023-02-11T04:50:41.963Z,22.00
2023-02-11T04:53:09.422Z,23.23
2023-02-11T04:55:36.848Z,20.88
2023-02-11T04:58:04.378Z,23.13
2023-02-11T05:00:31.809Z,21.52
2023-02-11T05:02:59.428Z,22.30
2023-02-11T05:05:27.410Z,22.58
2023-02-11T05:07:55.164Z,21.15
2023-02-11T05:10:22.728Z,22.38
2023-02-11T05:12:50.385Z,18.08
2023-02-11T05:15:18.284Z,21.90
2023-02-11T05:17:46.526Z,18.70
2023-02-11T05:20:14.233Z,22.10
2023-02-11T05:22:41.821Z,21.67
2023-02-11T05:25:09.694Z,20.23
2023-02-11T05:27:37.598Z,22.20
2023-02-11T05:30:06.348Z,21.15
2023-02-11T05:32:34.094Z,17.13
2023-02-11T05:35:01.628Z,17.42
2023-02-11T05:37:29.155Z,20.58
2023-02-11T05:39:56.733Z,17.10
2023-02-11T05:42:24.517Z,19.88
2023-02-11T05:44:52.383Z,20.08
2023-02-11T05:47:20.199Z,17.17
2023-02-11T05:49:47.869Z,15.52
2023-02-11T05:52:15.831Z,22.52
2023-02-11T05:54:43.624Z,15.93
2023-02-11T05:57:11.532Z,18.35
2023-02-11T05:59:39.419Z,21.13
2023-02-11T06:02:08.043Z,17.27
2023-02-11T06:04:36.479Z,16.50
2023-02-11T06:07:04.052Z,15.05
2023-02-11T06:09:31.701Z,18.60
2023-02-11T06:11:59.545Z,16.50
2023-02-11T06:14:27.419Z,15.45
2023-02-11T06:16:55.138Z,14.73
2023-02-11T06:19:22.901Z,16.55
2023-02-11T06:21:50.651Z,19.33
2023-02-11T06:24:33.092Z,18.20
2023-02-11T06:27:06.625Z,18.08
2023-02-11T06:29:34.677Z,15.88
2023-02-11T06:32:03.060Z,17.48
2023-02-11T06:34:30.906Z,22.58
2023-02-11T06:36:58.636Z,24.65
2023-02-11T06:39:26.313Z,14.70
2023-02-11T06:41:54.593Z,20.50
2023-02-11T06:44:22.290Z,13.70
2023-02-11T06:46:50.118Z,16.75
2023-02-11T06:49:17.865Z,16.33
2023-02-11T06:51:45.454Z,18.30
2023-02-11T06:54:13.332Z,14.98
2023-02-11T06:56:41.958Z,20.40
2023-02-11T06:59:17.191Z,15.55
2023-02-11T07:01:45.292Z,12.93
2023-02-11T07:04:14.674Z,14.45
2023-02-11T07:06:42.295Z,18.10
2023-02-11T07:09:09.955Z,12.77
2023-02-11T07:11:37.758Z,12.95
2023-02-11T07:14:10.693Z,18.52
2023-02-11T07:16:39.174Z,14.13
2023-02-11T07:19:06.789Z,13.75
2023-02-11T07:21:34.474Z,16.85
2023-02-11T07:24:06.906Z,12.98
2023-02-11T07:26:36.156Z,14.45
2023-02-11T07:29:03.734Z,12.00
2023-02-11T07:31:32.428Z,18.38
2023-02-11T07:34:01.725Z,15.43
2023-02-11T07:36:32.071Z,14.77
2023-02-11T07:39:00.349Z,17.20
2023-02-11T07:41:28.562Z,15.23
2023-02-11T07:43:56.488Z,12.07
2023-02-11T07:46:27.092Z,14.98
2023-02-11T07:48:55.414Z,14.27
2023-02-11T07:51:25.690Z,15.07
2023-02-11T07:53:55.530Z,13.00
2023-02-11T07:56:23.661Z,13.38
2023-02-11T07:58:51.415Z,13.52
2023-02-11T08:01:25.905Z,11.93
2023-02-11T08:03:54.070Z,15.07
2023-02-11T08:06:23.918Z,17.90
2023-02-11T08:08:51.788Z,11.20
2023-02-11T08:11:27.059Z,9.50
2023-02-11T08:13:55.764Z,11.68
2023-02-11T08:16:29.203Z,13.50
2023-02-11T08:18:58.776Z,11.07
2023-02-11T08:21:26.540Z,9.00
2023-02-11T08:23:54.418Z,13.70
2023-02-11T08:26:24.727Z,10.43
2023-02-11T08:28:54.072Z,14.35
2023-02-11T08:31:27.546Z,10.45
2023-02-11T08:33:58.007Z,9.43
2023-02-11T08:36:29.171Z,9.93
2023-02-11T08:39:16.168Z,9.43
2023-02-11T08:41:50.870Z,8.98
2023-02-11T08:44:20.197Z,11.45
2023-02-11T08:46:48.318Z,10.88
2023-02-11T08:49:16.494Z,8.77
2023-02-11T08:51:44.120Z,8.57
2023-02-11T08:54:12.018Z,8.05
2023-02-11T08:56:39.731Z,7.97
2023-02-11T08:59:09.174Z,6.78
2023-02-11T09:01:36.836Z,8.73
2023-02-11T09:04:04.581Z,6.07
2023-02-11T09:06:32.379Z,5.75
2023-02-11T09:09:03.370Z,8.52
2023-02-11T09:14:01.640Z,4.45
2023-02-11T09:16:32.513Z,3.58
2023-02-11T09:19:01.799Z,4.70
2023-02-11T09:21:29.965Z,9.55
2023-02-11T09:23:57.802Z,7.45
2023-02-11T09:26:29.188Z,8.98
2023-02-11T09:28:57.479Z,14.05
2023-02-11T09:31:27.228Z,5.22
2023-02-11T09:33:58.876Z,10.50
2023-02-11T09:36:38.678Z,4.93
2023-02-11T09:39:09.660Z,7.00
2023-02-11T09:44:29.715Z,5.75
2023-02-11T09:47:03.289Z,7.93
2023-02-11T09:49:51.164Z,5.05
2023-02-11T09:52:51.705Z,10.05
2023-02-11T09:55:24.932Z,5.57
2023-02-11T09:57:53.468Z,11.65
2023-02-11T10:00:33.834Z,7.25
2023-02-11T10:03:39.041Z,4.28
2023-02-11T10:06:20.117Z,6.78
2023-02-11T10:09:02.823Z,10.98
2023-02-11T10:11:51.565Z,7.43
2023-02-11T10:14:42.411Z,4.97
2023-02-11T10:17:24.072Z,6.70
2023-02-11T10:20:18.289Z,7.82
2023-02-11T10:22:53.746Z,10.65
2023-02-11T10:25:23.371Z,5.72
2023-02-11T10:27:52.413Z,7.22
2023-02-11T10:30:32.469Z,6.43
2023-02-11T10:33:06.808Z,6.97
2023-02-11T10:35:34.299Z,5.38
2023-02-11T10:38:01.883Z,5.78
2023-02-11T10:40:31.982Z,5.22
2023-02-11T10:43:04.179Z,5.28
2023-02-11T10:45:52.053Z,6.38
2023-02-11T10:48:40.560Z,7.47
2023-02-11T10:51:14.067Z,7.13
2023-02-11T10:53:42.064Z,5.32
2023-02-11T10:56:14.304Z,3.35
2023-02-11T10:58:45.974Z,5.38
2023-02-11T11:01:24.235Z,5.13
2023-02-11T11:03:53.141Z,7.00
2023-02-11T11:06:34.807Z,13.70
2023-02-11T11:09:02.680Z,3.78
2023-02-11T11:11:30.210Z,11.65
2023-02-11T11:14:00.381Z,5.78
2023-02-11T11:16:28.430Z,6.32
2023-02-11T11:19:08.474Z,9.70
2023-02-11T11:21:43.503Z,5.13
2023-02-11T11:24:17.327Z,4.82
2023-02-11T11:26:54.880Z,7.97
2023-02-11T11:29:30.483Z,5.20
2023-02-11T11:32:01.717Z,3.90
2023-02-11T11:34:38.633Z,6.75
2023-02-11T11:37:19.445Z,7.75
2023-02-11T11:40:01.202Z,5.45
2023-02-11T11:42:34.372Z,4.47
2023-02-11T11:45:25.781Z,5.43
2023-02-11T11:48:06.268Z,9.40
2023-02-11T11:50:41.741Z,5.75
2023-02-11T11:53:45.653Z,7.50
2023-02-11T11:56:26.206Z,4.55
2023-02-11T11:58:55.101Z,3.25
2023-02-11T12:01:22.483Z,4.05
2023-02-11T12:04:13.692Z,5.72
2023-02-11T12:07:16.870Z,7.10
2023-02-11T12:10:08.393Z,5.40
2023-02-11T12:12:55.636Z,4.00
2023-02-11T12:15:50.783Z,5.28
2023-02-11T12:18:47.291Z,4.78
2023-02-11T12:21:24.509Z,7.10
2023-02-11T12:24:17.510Z,6.55
2023-02-11T12:26:57.059Z,6.00
2023-02-11T12:29:31.358Z,11.00
2023-02-11T12:32:09.358Z,60.60
2023-02-11T12:34:39.888Z,25.35
2023-02-11T12:37:41.411Z,5.97
2023-02-11T12:40:19.274Z,13.65
2023-02-11T12:43:17.526Z,5.68
2023-02-11T12:46:00.381Z,9.40
2023-02-11T12:48:40.860Z,6.00
2023-02-11T12:51:26.923Z,5.88
2023-02-11T12:54:19.797Z,8.32
2023-02-11T12:57:14.685Z,10.75
2023-02-11T13:00:25.418Z,7.38
2023-02-11T13:03:14.016Z,7.72
2023-02-11T13:06:05.201Z,6.00
2023-02-11T13:08:37.197Z,8.18
2023-02-11T13:11:14.933Z,9.32
2023-02-11T13:13:45.548Z,5.95
2023-02-11T13:16:37.025Z,9.70
2023-02-11T13:19:13.628Z,9.52
2023-02-11T13:22:02.432Z,5.60
2023-02-11T13:24:41.609Z,5.72
2023-02-11T13:27:20.585Z,7.00
2023-02-11T13:29:55.984Z,7.90
2023-02-11T13:32:24.188Z,10.23
2023-02-11T13:34:52.122Z,4.03
2023-02-11T13:37:26.554Z,6.20
2023-02-11T13:39:58.792Z,9.55
2023-02-11T13:42:27.187Z,7.90
2023-02-11T13:44:55.436Z,8.57
2023-02-11T13:47:32.719Z,6.15
2023-02-11T13:50:02.719Z,6.65
2023-02-11T13:52:34.843Z,5.38
2023-02-11T13:55:14.517Z,6.32
2023-02-11T13:57:42.708Z,12.70
2023-02-11T14:00:33.648Z,10.80
2023-02-11T14:03:31.970Z,10.20
2023-02-11T14:06:27.097Z,6.20
2023-02-11T14:09:06.264Z,8.32
2023-02-11T14:11:33.714Z,8.23
2023-02-11T14:14:27.952Z,7.65
2023-02-11T14:16:58.852Z,7.78
2023-02-11T14:22:05.202Z,5.93
2023-02-11T14:24:32.837Z,12.07
2023-02-11T14:27:21.347Z,11.40
2023-02-11T14:30:11.771Z,4.80
2023-02-11T14:33:09.703Z,11.20
2023-02-11T14:35:51.258Z,12.68
2023-02-11T14:38:40.082Z,10.07
2023-02-11T14:41:31.987Z,5.70
2023-02-11T14:44:04.720Z,8.73
2023-02-11T14:46:33.692Z,12.35
2023-02-11T14:49:03.578Z,15.15
2023-02-11T14:51:36.346Z,8.83
2023-02-11T14:54:29.128Z,12.27
2023-02-11T14:57:06.386Z,8.25
2023-02-11T14:59:34.185Z,6.88
2023-02-11T15:02:02.248Z,7.00
2023-02-11T15:04:32.109Z,8.30
2023-02-11T15:07:06.168Z,11.13
2023-02-11T15:09:39.869Z,10.93
2023-02-11T15:12:15.665Z,10.73
2023-02-11T15:14:48.184Z,8.50
2023-02-11T15:17:20.938Z,10.00
2023-02-11T15:19:53.364Z,8.93
2023-02-11T15:22:28.170Z,13.88
2023-02-11T15:25:08.047Z,11.45
2023-02-11T15:27:50.782Z,11.73
2023-02-11T15:30:24.928Z,7.85
2023-02-11T15:33:02.990Z,6.65
2023-02-11T15:35:37.959Z,8.07
2023-02-11T15:38:05.854Z,7.97
2023-02-11T15:40:36.270Z,14.30
2023-02-11T15:43:07.958Z,16.08
2023-02-11T15:45:51.678Z,13.18
2023-02-11T15:48:27.715Z,14.35
2023-02-11T15:50:58.914Z,10.02
2023-02-11T15:53:33.954Z,11.93
2023-02-11T15:56:26.685Z,9.43
2023-02-11T15:58:57.187Z,12.95
2023-02-11T16:01:35.953Z,18.15
2023-02-11T16:04:05.797Z,8.85
2023-02-11T16:06:42.787Z,12.38
2023-02-11T16:09:11.006Z,12.10
2023-02-11T16:11:47.279Z,9.43
2023-02-11T16:14:27.292Z,9.40
2023-02-11T16:17:11.634Z,10.68
2023-02-11T16:19:50.919Z,8.98
2023-02-11T16:22:30.475Z,9.75
2023-02-11T16:24:59.405Z,10.60
2023-02-11T16:27:34.031Z,8.57
2023-02-11T16:30:01.742Z,8.50
2023-02-11T16:32:30.650Z,10.02
2023-02-11T16:35:00.936Z,10.85
2023-02-11T16:39:56.938Z,11.02
2023-02-11T16:42:25.188Z,9.85
2023-02-11T16:44:52.993Z,9.80
2023-02-11T16:47:28.147Z,11.02
2023-02-11T16:49:57.378Z,18.17
2023-02-11T16:52:25.479Z,14.65
2023-02-11T16:54:53.510Z,10.55
2023-02-11T16:57:23.373Z,18.52
2023-02-11T16:59:52.507Z,18.67
2023-02-11T17:02:27.160Z,11.18
2023-02-11T17:04:57.884Z,12.60
2023-02-11T17:07:25.868Z,14.23
2023-02-11T17:09:53.390Z,11.82
2023-02-11T17:12:21.442Z,11.13
2023-02-11T17:14:48.885Z,14.48
2023-02-11T17:17:17.184Z,12.25
2023-02-11T17:19:44.968Z,14.77
2023-02-11T17:22:12.635Z,14.88
2023-02-11T17:24:41.073Z,14.77
2023-02-11T17:27:11.767Z,16.52
2023-02-11T17:29:39.380Z,16.95
2023-02-11T17:32:07.089Z,13.07
2023-02-11T17:34:34.983Z,10.43
2023-02-11T17:37:08.890Z,11.13
2023-02-11T17:39:38.390Z,14.57
2023-02-11T17:42:06.909Z,15.35
2023-02-11T17:44:34.800Z,13.77
2023-02-11T17:47:03.048Z,12.45
2023-02-11T17:49:30.768Z,17.83
2023-02-11T17:51:58.316Z,11.20
2023-02-11T17:54:25.992Z,10.73
2023-02-11T17:56:57.152Z,10.68
2023-02-11T17:59:26.490Z,10.95
2023-02-11T18:01:54.100Z,12.30
2023-02-11T18:04:22.003Z,12.20
2023-02-11T18:06:50.304Z,10.75
2023-02-11T18:09:17.932Z,12.10
2023-02-11T18:11:45.573Z,13.10
2023-02-11T18:14:13.516Z,14.90
2023-02-11T18:16:43.609Z,12.88
2023-02-11T18:19:12.506Z,33.90
2023-02-11T18:21:40.404Z,36.67
2023-02-11T18:24:08.559Z,27.83
2023-02-11T18:26:36.472Z,26.15
2023-02-11T18:29:05.207Z,30.83
2023-02-11T18:31:35.207Z,20.77
2023-02-11T18:34:05.800Z,16.63
2023-02-11T18:36:33.999Z,13.35
2023-02-11T18:39:01.696Z,14.07
2023-02-11T18:41:29.787Z,16.83
2023-02-11T18:43:58.704Z,16.10
2023-02-11T18:46:26.650Z,10.55
2023-02-11T18:48:56.250Z,21.23
2023-02-11T18:51:24.540Z,11.50
2023-02-11T18:53:52.932Z,13.70
2023-02-11T18:56:23.415Z,13.02
2023-02-11T18:58:52.026Z,14.27
2023-02-11T19:01:24.445Z,17.10
2023-02-11T19:03:53.051Z,16.30
2023-02-11T19:06:28.829Z,16.63
2023-02-11T19:09:02.064Z,13.07
2023-02-11T19:11:50.218Z,21.00
2023-02-11T19:14:23.567Z,15.40
2023-02-11T19:16:53.680Z,14.25
2023-02-11T19:19:24.749Z,16.02
2023-02-11T19:21:55.563Z,13.55
2023-02-11T19:24:28.147Z,15.77
2023-02-11T19:26:58.542Z,14.43
2023-02-11T19:29:27.091Z,17.13
2023-02-11T19:31:55.079Z,15.30
2023-02-11T19:34:23.044Z,15.15
2023-02-11T19:36:50.909Z,18.83
2023-02-11T19:39:18.590Z,23.23
2023-02-11T19:41:46.570Z,21.38
2023-02-11T19:44:14.397Z,24.25
2023-02-11T19:46:42.183Z,26.50
2023-02-11T19:49:11.432Z,18.67
2023-02-11T19:51:39.359Z,19.30
2023-02-11T19:54:09.645Z,17.13
2023-02-11T19:56:37.946Z,21.42
2023-02-11T19:59:08.953Z,23.75
2023-02-11T20:01:37.039Z,18.58
2023-02-11T20:04:05.031Z,19.20
2023-02-11T20:06:33.600Z,16.90
2023-02-11T20:09:07.629Z,16.08
2023-02-11T20:11:35.969Z,21.95
2023-02-11T20:14:05.046Z,25.73
2023-02-11T20:16:47.647Z,19.52
2023-02-11T20:19:22.088Z,23.90
2023-02-11T20:21:52.794Z,20.80
2023-02-11T20:24:20.485Z,25.30
2023-02-11T20:26:49.038Z,20.58
2023-02-11T20:29:17.955Z,16.77
2023-02-11T20:31:46.415Z,20.73
2023-02-11T20:34:15.177Z,14.93
2023-02-11T20:36:42.736Z,23.50
2023-02-11T20:39:11.416Z,19.35
2023-02-11T20:41:41.869Z,15.98
2023-02-11T20:44:10.814Z,14.30
2023-02-11T20:46:42.810Z,17.73
2023-02-11T20:49:18.754Z,21.45
2023-02-11T20:51:46.718Z,23.55
2023-02-11T20:54:17.334Z,26.10
2023-02-11T20:56:48.139Z,25.42
2023-02-11T21:01:47.187Z,45.47
2023-02-11T21:04:18.106Z,45.20
2023-02-11T21:06:52.058Z,48.22
2023-02-11T21:09:24.029Z,47.60
2023-02-11T21:11:52.687Z,46.35
2023-02-11T21:14:22.265Z,45.22
2023-02-11T21:16:50.213Z,50.10
2023-02-11T21:19:17.840Z,45.65
2023-02-11T21:21:45.829Z,39.13
2023-02-11T21:24:13.668Z,37.05
2023-02-11T21:26:41.301Z,31.55
2023-02-11T21:29:09.439Z,23.85
2023-02-11T21:31:38.101Z,29.60
2023-02-11T21:34:06.247Z,28.13
2023-02-11T21:36:34.313Z,31.98
2023-02-11T21:39:04.002Z,23.67
2023-02-11T21:41:31.878Z,29.10
2023-02-11T21:43:59.350Z,25.00
2023-02-11T21:46:27.290Z,20.25
2023-02-11T21:48:54.920Z,27.25
2023-02-11T21:51:24.642Z,29.73
2023-02-11T21:54:02.672Z,27.40
2023-02-11T21:56:34.252Z,23.83
2023-02-11T21:59:02.070Z,19.30
2023-02-11T22:01:33.307Z,20.95
2023-02-11T22:04:00.992Z,21.98
2023-02-11T22:06:31.551Z,20.15
2023-02-11T22:09:02.608Z,24.33
2023-02-11T22:11:30.264Z,28.52
2023-02-11T22:13:59.132Z,24.15
2023-02-11T22:16:27.924Z,25.52
2023-02-11T22:18:58.518Z,29.17
2023-02-11T22:21:26.809Z,28.13
2023-02-11T22:23:55.964Z,27.88
2023-02-11T22:26:25.477Z,28.75
2023-02-11T22:28:54.841Z,32.58
2023-02-11T22:31:25.538Z,25.67
2023-02-11T22:33:53.494Z,28.58
2023-02-11T22:36:24.316Z,29.10
2023-02-11T22:38:52.529Z,27.48
2023-02-11T22:41:21.646Z,27.08
2023-02-11T22:43:49.658Z,27.48
2023-02-11T22:46:19.268Z,26.88
2023-02-11T22:48:47.668Z,29.17
2023-02-11T22:51:19.560Z,27.48
2023-02-11T22:54:03.903Z,31.70
2023-02-11T22:56:35.256Z,30.77
2023-02-11T22:59:05.938Z,43.83
2023-02-11T23:01:33.997Z,72.95
2023-02-11T23:04:03.803Z,46.58
2023-02-11T23:06:32.276Z,41.63
2023-02-11T23:08:59.973Z,49.38
2023-02-11T23:11:30.268Z,123.90
2023-02-11T23:14:01.984Z,79.40
2023-02-11T23:16:34.199Z,66.93
2023-02-11T23:19:05.039Z,96.20
2023-02-11T23:21:35.061Z,63.95
2023-02-11T23:24:07.273Z,38.03
2023-02-11T23:26:41.060Z,35.13
2023-02-11T23:29:09.393Z,34.85
2023-02-11T23:31:43.335Z,30.60
2023-02-11T23:34:11.235Z,28.25
2023-02-11T23:36:38.757Z,30.10
2023-02-11T23:39:06.353Z,33.67
2023-02-11T23:41:34.004Z,26.67
2023-02-11T23:44:01.921Z,25.92
2023-02-11T23:46:32.391Z,28.10
2023-02-11T23:49:00.251Z,26.92
2023-02-11T23:51:28.269Z,30.15
2023-02-11T23:53:56.432Z,30.20
2023-02-11T23:56:28.289Z,28.50
2023-02-11T23:58:58.119Z,26.42
